createdAt,value
2022-12-01T00:01:50.580Z,102381.88
2022-12-01T00:04:20.476Z,102384.21
2022-12-01T00:06:49.022Z,102381.41
2022-12-01T00:09:36.132Z,102379.41
2022-12-01T00:12:07.178Z,102384.46
2022-12-01T00:14:35.598Z,102384.45
2022-12-01T00:17:05.793Z,102384.22
2022-12-01T00:19:35.495Z,102386.54
2022-12-01T00:22:05.176Z,102384.95
2022-12-01T00:24:34.830Z,102385.40
2022-12-01T00:27:04.539Z,102387.48
2022-12-01T00:29:34.264Z,102383.72
2022-12-01T00:32:04.372Z,102381.04
2022-12-01T00:34:34.971Z,102380.15
2022-12-01T00:37:05.474Z,102379.57
2022-12-01T00:39:34.596Z,102377.66
2022-12-01T00:42:08.622Z,102375.82
2022-12-01T00:44:41.714Z,102375.72
2022-12-01T00:47:11.629Z,102377.38
2022-12-01T00:49:41.837Z,102379.61
2022-12-01T00:52:17.190Z,102377.61
2022-12-01T00:54:47.203Z,102380.20
2022-12-01T00:57:16.942Z,102383.61
2022-12-01T00:59:47.313Z,102383.02
2022-12-01T01:02:17.199Z,102388.23
2022-12-01T01:04:47.138Z,102387.01
2022-12-01T01:07:17.083Z,102387.89
2022-12-01T01:09:47.061Z,102382.95
2022-12-01T01:12:18.641Z,102385.27
2022-12-01T01:14:47.480Z,102387.04
2022-12-01T01:17:14.599Z,102389.02
2022-12-01T01:19:43.182Z,102388.48
2022-12-01T01:22:12.277Z,102390.98
2022-12-01T01:24:40.134Z,102389.31
2022-12-01T01:27:08.434Z,102391.14
2022-12-01T01:29:38.318Z,102392.86
2022-12-01T01:32:09.235Z,102392.14
2022-12-01T01:34:38.929Z,102388.83
2022-12-01T01:37:08.715Z,102388.10
2022-12-01T01:39:38.516Z,102383.48
2022-12-01T01:42:14.959Z,102387.21
2022-12-01T01:44:57.762Z,102385.14
2022-12-01T01:47:34.859Z,102385.73
2022-12-01T01:50:13.281Z,102386.00
2022-12-01T01:52:55.364Z,102385.13
2022-12-01T01:55:26.168Z,102392.73
2022-12-01T01:57:56.743Z,102393.77
2022-12-01T02:00:45.186Z,102389.95
2022-12-01T02:03:18.417Z,102389.11
2022-12-01T02:05:46.456Z,102383.68
2022-12-01T02:08:14.883Z,102387.16
2022-12-01T02:11:21.005Z,102387.03
2022-12-01T02:14:45.786Z,102384.23
2022-12-01T02:17:27.298Z,102380.48
2022-12-01T02:20:38.812Z,102375.86
2022-12-01T02:24:01.274Z,102371.27
2022-12-01T02:27:06.704Z,102372.27
2022-12-01T02:29:45.566Z,102371.23
2022-12-01T02:32:38.483Z,102374.59
2022-12-01T02:35:48.634Z,102380.69
2022-12-01T02:38:45.350Z,102377.47
2022-12-01T02:41:27.437Z,102371.38
2022-12-01T02:44:08.841Z,102373.91
2022-12-01T02:47:18.520Z,102372.59
2022-12-01T02:49:55.116Z,102367.84
2022-12-01T02:52:27.015Z,102368.15
2022-12-01T02:54:57.030Z,102365.69
2022-12-01T02:57:30.674Z,102368.06
2022-12-01T03:00:01.889Z,102367.09
2022-12-01T03:03:25.144Z,102366.55
2022-12-01T03:06:28.035Z,102364.23
2022-12-01T03:09:06.513Z,102367.21
2022-12-01T03:11:54.452Z,102373.41
2022-12-01T03:14:39.802Z,102376.16
2022-12-01T03:17:18.943Z,102374.42
2022-12-01T03:19:55.750Z,102369.64
2022-12-01T03:22:40.020Z,102371.33
2022-12-01T03:25:13.201Z,102374.95
2022-12-01T03:28:06.716Z,102376.04
2022-12-01T03:30:38.976Z,102377.64
2022-12-01T03:33:19.133Z,102376.86
2022-12-01T03:36:03.397Z,102376.48
2022-12-01T03:38:37.259Z,102373.79
2022-12-01T03:41:17.885Z,102373.97
2022-12-01T03:43:56.896Z,102375.14
2022-12-01T03:46:47.397Z,102374.02
2022-12-01T03:49:19.629Z,102372.55
2022-12-01T03:52:17.306Z,102375.09
2022-12-01T03:55:19.630Z,102376.55
2022-12-01T03:58:09.069Z,102374.11
2022-12-01T04:00:40.082Z,102376.50
2022-12-01T04:03:19.065Z,102377.38
2022-12-01T04:05:48.889Z,102375.50
2022-12-01T04:08:17.819Z,102377.23
2022-12-01T04:10:45.510Z,102376.44
2022-12-01T04:13:22.693Z,102384.50
2022-12-01T04:15:54.395Z,102383.46
2022-12-01T04:18:22.874Z,102383.55
2022-12-01T04:20:51.529Z,102383.20
2022-12-01T04:23:38.056Z,102382.78
2022-12-01T04:26:12.655Z,102379.45
2022-12-01T04:28:45.309Z,102380.80
2022-12-01T04:31:15.028Z,102380.74
2022-12-01T04:33:44.829Z,102384.09
2022-12-01T04:36:14.547Z,102383.64
2022-12-01T04:38:44.256Z,102385.34
2022-12-01T04:41:15.278Z,102383.26
2022-12-01T04:43:45.077Z,102383.96
2022-12-01T04:46:15.387Z,102389.09
2022-12-01T04:48:45.273Z,102389.20
2022-12-01T04:51:15.258Z,102389.16
2022-12-01T04:53:44.975Z,102392.27
2022-12-01T04:56:13.536Z,102394.66
2022-12-01T04:58:42.094Z,102393.69
2022-12-01T05:01:16.412Z,102400.09
2022-12-01T05:03:49.537Z,102400.55
2022-12-01T05:06:23.961Z,102403.37
2022-12-01T05:09:00.260Z,102404.08
2022-12-01T05:11:32.580Z,102407.34
2022-12-01T05:14:02.369Z,102405.54
2022-12-01T05:16:33.386Z,102406.80
2022-12-01T05:19:24.317Z,102402.56
2022-12-01T05:21:54.110Z,102402.67
2022-12-01T05:24:22.610Z,102402.69
2022-12-01T05:26:50.889Z,102408.02
2022-12-01T05:29:19.457Z,102411.40
2022-12-01T05:31:47.860Z,102408.46
2022-12-01T05:34:16.386Z,102409.94
2022-12-01T05:36:44.605Z,102414.37
2022-12-01T05:39:12.984Z,102417.68
2022-12-01T05:41:41.368Z,102418.55
2022-12-01T05:44:09.925Z,102420.51
2022-12-01T05:46:38.399Z,102418.55
2022-12-01T05:49:06.895Z,102415.60
2022-12-01T05:51:35.481Z,102413.15
2022-12-01T05:54:04.034Z,102413.89
2022-12-01T05:56:32.384Z,102409.46
2022-12-01T05:59:00.979Z,102414.80
2022-12-01T06:01:29.435Z,102413.06
2022-12-01T06:03:57.797Z,102415.45
2022-12-01T06:06:26.216Z,102415.55
2022-12-01T06:08:54.622Z,102415.74
2022-12-01T06:11:23.337Z,102420.04
2022-12-01T06:13:51.508Z,102420.04
2022-12-01T06:16:19.977Z,102422.92
2022-12-01T06:18:48.396Z,102422.17
2022-12-01T06:21:17.464Z,102422.52
2022-12-01T06:23:45.287Z,102429.86
2022-12-01T06:26:13.680Z,102428.61
2022-12-01T06:28:42.194Z,102430.79
2022-12-01T06:31:10.527Z,102432.52
2022-12-01T06:33:39.119Z,102427.55
2022-12-01T06:36:08.392Z,102427.87
2022-12-01T06:38:37.301Z,102426.83
2022-12-01T06:41:05.640Z,102428.88
2022-12-01T06:43:36.327Z,102430.89
2022-12-01T06:46:05.724Z,102433.73
2022-12-01T06:48:32.677Z,102436.10
2022-12-01T06:51:02.340Z,102431.29
2022-12-01T06:53:30.013Z,102432.67
2022-12-01T06:56:03.223Z,102439.98
2022-12-01T06:58:34.494Z,102442.08
2022-12-01T07:01:12.228Z,102449.94
2022-12-01T07:03:42.861Z,102452.85
2022-12-01T07:06:12.568Z,102452.36
2022-12-01T07:08:42.628Z,102449.12
2022-12-01T07:11:14.382Z,102452.77
2022-12-01T07:13:47.012Z,102454.45
2022-12-01T07:16:17.114Z,102455.53
2022-12-01T07:18:46.810Z,102459.91
2022-12-01T07:21:15.866Z,102465.47
2022-12-01T07:23:44.004Z,102464.55
2022-12-01T07:26:17.237Z,102462.73
2022-12-01T07:28:46.923Z,102466.30
2022-12-01T07:31:19.473Z,102467.95
2022-12-01T07:33:49.246Z,102466.14
2022-12-01T07:36:18.980Z,102468.67
2022-12-01T07:38:48.673Z,102469.91
2022-12-01T07:41:21.690Z,102466.83
2022-12-01T07:43:51.540Z,102462.81
2022-12-01T07:46:25.498Z,102467.20
2022-12-01T07:48:56.090Z,102468.50
2022-12-01T07:51:25.902Z,102473.44
2022-12-01T07:53:55.608Z,102472.16
2022-12-01T07:56:25.346Z,102474.66
2022-12-01T07:58:55.241Z,102475.50
2022-12-01T08:01:26.109Z,102474.29
2022-12-01T08:03:58.650Z,102473.98
2022-12-01T08:06:27.623Z,102473.14
2022-12-01T08:08:57.569Z,102476.65
2022-12-01T08:11:31.848Z,102475.20
2022-12-01T08:14:01.766Z,102476.08
2022-12-01T08:16:31.655Z,102477.58
2022-12-01T08:19:00.029Z,102472.63
2022-12-01T08:21:28.669Z,102474.70
2022-12-01T08:23:58.011Z,102474.42
2022-12-01T08:26:27.495Z,102475.29
2022-12-01T08:28:57.915Z,102477.38
2022-12-01T08:31:32.792Z,102479.42
2022-12-01T08:34:06.738Z,102476.08
2022-12-01T08:36:37.187Z,102481.85
2022-12-01T08:39:08.680Z,102481.48
2022-12-01T08:41:38.331Z,102478.85
2022-12-01T08:44:10.761Z,102475.50
2022-12-01T08:46:40.680Z,102477.31
2022-12-01T08:49:10.592Z,102480.45
2022-12-01T08:51:40.319Z,102479.36
2022-12-01T08:54:12.137Z,102481.63
2022-12-01T08:56:45.169Z,102480.86
2022-12-01T08:59:15.013Z,102481.41
2022-12-01T09:01:53.749Z,102484.78
2022-12-01T09:04:26.600Z,102486.14
2022-12-01T09:06:57.688Z,102487.54
2022-12-01T09:09:29.089Z,102488.98
2022-12-01T09:11:56.726Z,102488.05
2022-12-01T09:14:24.290Z,102489.69
2022-12-01T09:16:52.705Z,102489.09
2022-12-01T09:19:24.498Z,102484.59
2022-12-01T09:21:54.924Z,102486.77
2022-12-01T09:24:24.745Z,102486.86
2022-12-01T09:26:57.376Z,102490.02
2022-12-01T09:29:27.248Z,102491.80
2022-12-01T09:31:59.763Z,102491.67
2022-12-01T09:34:29.485Z,102489.09
2022-12-01T09:36:59.237Z,102491.89
2022-12-01T09:39:29.694Z,102486.69
2022-12-01T09:42:15.016Z,102486.55
2022-12-01T09:44:56.129Z,102486.04
2022-12-01T09:47:35.384Z,102486.86
2022-12-01T09:50:23.874Z,102485.54
2022-12-01T09:53:08.650Z,102487.45
2022-12-01T09:55:39.685Z,102484.48
2022-12-01T09:58:29.638Z,102486.16
2022-12-01T10:01:00.273Z,102484.55
2022-12-01T10:03:50.205Z,102480.88
2022-12-01T10:07:03.328Z,102484.10
2022-12-01T10:10:07.094Z,102478.62
2022-12-01T10:12:36.946Z,102476.58
2022-12-01T10:15:42.667Z,102465.24
2022-12-01T10:18:27.490Z,102464.29
2022-12-01T10:21:19.619Z,102465.15
2022-12-01T10:24:18.621Z,102469.60
2022-12-01T10:27:24.059Z,102468.67
2022-12-01T10:30:24.431Z,102463.00
2022-12-01T10:33:00.645Z,102460.72
2022-12-01T10:35:36.968Z,102464.37
2022-12-01T10:38:21.056Z,102465.33
2022-12-01T10:40:51.642Z,102466.81
2022-12-01T10:43:40.965Z,102463.09
2022-12-01T10:46:29.645Z,102462.77
2022-12-01T10:49:09.685Z,102458.04
2022-12-01T10:51:54.909Z,102453.36
2022-12-01T10:54:40.099Z,102456.35
2022-12-01T10:57:17.641Z,102456.66
2022-12-01T11:00:08.795Z,102452.14
2022-12-01T11:02:38.894Z,102451.34
2022-12-01T11:05:25.506Z,102448.67
2022-12-01T11:07:55.986Z,102445.08
2022-12-01T11:10:33.702Z,102442.98
2022-12-01T11:13:28.346Z,102439.63
2022-12-01T11:16:02.382Z,102439.73
2022-12-01T11:18:38.646Z,102437.00
2022-12-01T11:21:27.374Z,102435.71
2022-12-01T11:23:57.402Z,102437.72
2022-12-01T11:26:34.402Z,102439.00
2022-12-01T11:29:22.506Z,102437.46
2022-12-01T11:31:53.055Z,102434.12
2022-12-01T11:34:27.240Z,102433.70
2022-12-01T11:37:14.924Z,102435.14
2022-12-01T11:39:48.431Z,102437.38
2022-12-01T11:42:29.681Z,102439.91
2022-12-01T11:45:22.328Z,102437.89
2022-12-01T11:48:12.203Z,102436.17
2022-12-01T11:50:44.033Z,102435.26
2022-12-01T11:53:32.609Z,102437.44
2022-12-01T11:56:28.764Z,102436.39
2022-12-01T11:59:03.153Z,102430.10
2022-12-01T12:01:57.029Z,102433.42
2022-12-01T12:05:20.954Z,102430.98
2022-12-01T12:08:44.874Z,102433.82
2022-12-01T12:11:51.871Z,102430.83
2022-12-01T12:14:48.474Z,102427.58
2022-12-01T12:17:29.219Z,102425.30
2022-12-01T12:20:20.544Z,102420.48
2022-12-01T12:23:27.157Z,102420.08
2022-12-01T12:26:22.972Z,102421.27
2022-12-01T12:29:00.661Z,102423.87
2022-12-01T12:31:52.080Z,102421.84
2022-12-01T12:34:42.612Z,102418.20
2022-12-01T12:37:44.275Z,102421.80
2022-12-01T12:40:27.574Z,102417.73
2022-12-01T12:43:06.178Z,102418.52
2022-12-01T12:46:03.617Z,102417.23
2022-12-01T12:49:18.549Z,102417.98
2022-12-01T12:52:07.853Z,102415.48
2022-12-01T12:55:15.472Z,102422.93
2022-12-01T12:58:00.870Z,102426.52
2022-12-01T13:00:30.996Z,102420.79
2022-12-01T13:03:17.821Z,102420.96
2022-12-01T13:06:20.692Z,102418.84
2022-12-01T13:09:01.115Z,102414.29
2022-12-01T13:11:47.029Z,102415.65
2022-12-01T13:14:39.248Z,102412.44
2022-12-01T13:17:41.747Z,102410.55
2022-12-01T13:20:18.248Z,102416.27
2022-12-01T13:22:49.469Z,102416.66
2022-12-01T13:25:34.484Z,102421.08
2022-12-01T13:28:17.290Z,102414.80
2022-12-01T13:31:08.650Z,102416.01
2022-12-01T13:33:55.905Z,102411.23
2022-12-01T13:39:37.827Z,102419.82
2022-12-01T13:42:40.273Z,102418.86
2022-12-01T13:45:19.591Z,102417.10
2022-12-01T13:47:55.365Z,102418.63
2022-12-01T13:50:59.352Z,102415.84
2022-12-01T13:53:35.673Z,102422.36
2022-12-01T13:56:17.353Z,102422.32
2022-12-01T13:58:50.736Z,102420.23
2022-12-01T14:01:40.465Z,102422.56
2022-12-01T14:04:16.322Z,102423.30
2022-12-01T14:06:49.709Z,102419.77
2022-12-01T14:09:31.082Z,102417.08
2022-12-01T14:12:05.305Z,102413.63
2022-12-01T14:14:44.336Z,102411.40
2022-12-01T14:17:37.173Z,102408.73
2022-12-01T14:20:23.036Z,102403.61
2022-12-01T14:23:33.321Z,102407.02
2022-12-01T14:26:21.059Z,102404.95
2022-12-01T14:28:55.808Z,102402.50
2022-12-01T14:32:02.607Z,102401.26
2022-12-01T14:34:34.956Z,102401.77
2022-12-01T14:37:23.120Z,102401.69
2022-12-01T14:40:12.316Z,102403.52
2022-12-01T14:43:06.950Z,102402.86
2022-12-01T14:46:22.972Z,102408.73
2022-12-01T14:48:54.999Z,102407.55
2022-12-01T14:51:32.295Z,102406.55
2022-12-01T14:54:09.951Z,102407.70
2022-12-01T14:56:41.830Z,102407.65
2022-12-01T14:59:26.255Z,102402.23
2022-12-01T15:02:09.393Z,102399.22
2022-12-01T15:05:17.617Z,102400.44
2022-12-01T15:07:52.183Z,102391.48
2022-12-01T15:10:34.783Z,102392.40
2022-12-01T15:13:28.389Z,102388.73
2022-12-01T15:16:02.777Z,102389.08
2022-12-01T15:18:36.781Z,102386.29
2022-12-01T15:21:16.308Z,102385.67
2022-12-01T15:24:06.460Z,102388.85
2022-12-01T15:26:47.075Z,102387.91
2022-12-01T15:29:21.370Z,102390.58
2022-12-01T15:31:55.347Z,102389.84
2022-12-01T15:34:35.156Z,102386.34
2022-12-01T15:37:13.231Z,102383.57
2022-12-01T15:39:48.689Z,102381.06
2022-12-01T15:42:32.077Z,102378.84
2022-12-01T15:45:15.212Z,102377.68
2022-12-01T15:47:50.573Z,102380.22
2022-12-01T15:50:46.232Z,102383.69
2022-12-01T15:53:34.399Z,102386.75
2022-12-01T15:56:10.662Z,102383.27
2022-12-01T15:58:47.071Z,102389.74
2022-12-01T16:01:21.425Z,102392.85
2022-12-01T16:04:14.740Z,102394.02
2022-12-01T16:07:03.542Z,102391.81
2022-12-01T16:09:57.037Z,102395.45
2022-12-01T16:12:28.868Z,102395.50
2022-12-01T16:14:59.878Z,102392.39
2022-12-01T16:17:42.868Z,102393.52
2022-12-01T16:20:34.232Z,102393.18
2022-12-01T16:23:15.146Z,102391.36
2022-12-01T16:25:47.852Z,102392.84
2022-12-01T16:28:34.521Z,102391.66
2022-12-01T16:31:06.912Z,102392.64
2022-12-01T16:33:38.942Z,102393.70
2022-12-01T16:36:08.831Z,102393.56
2022-12-01T16:38:37.125Z,102393.14
2022-12-01T16:41:17.863Z,102395.27
2022-12-01T16:44:05.825Z,102398.56
2022-12-01T16:46:37.683Z,102394.80
2022-12-01T16:49:07.998Z,102402.02
2022-12-01T16:51:54.666Z,102394.67
2022-12-01T16:54:25.386Z,102401.92
2022-12-01T16:56:53.643Z,102400.06
2022-12-01T16:59:21.712Z,102398.80
2022-12-01T17:01:50.332Z,102397.55
2022-12-01T17:04:18.574Z,102400.98
2022-12-01T17:06:45.507Z,102400.60
2022-12-01T17:09:12.954Z,102397.96
2022-12-01T17:11:41.396Z,102398.17
2022-12-01T17:14:10.112Z,102398.69
2022-12-01T17:16:38.525Z,102397.15
2022-12-01T17:19:06.630Z,102396.99
2022-12-01T17:21:35.015Z,102395.63
2022-12-01T17:24:04.133Z,102396.59
2022-12-01T17:26:31.729Z,102399.95
2022-12-01T17:29:00.237Z,102400.64
2022-12-01T17:31:28.790Z,102397.05
2022-12-01T17:33:57.220Z,102397.45
2022-12-01T17:36:25.553Z,102396.83
2022-12-01T17:38:54.211Z,102395.29
2022-12-01T17:41:24.667Z,102392.27
2022-12-01T17:43:53.720Z,102393.63
2022-12-01T17:46:22.280Z,102389.73
2022-12-01T17:48:50.503Z,102390.89
2022-12-01T17:51:19.063Z,102390.54
2022-12-01T17:53:47.953Z,102391.08
2022-12-01T17:56:17.466Z,102391.05
2022-12-01T17:58:49.296Z,102389.30
2022-12-01T18:01:25.332Z,102390.17
2022-12-01T18:03:58.937Z,102386.87
2022-12-01T18:06:29.003Z,102385.14
2022-12-01T18:09:01.464Z,102386.74
2022-12-01T18:11:30.297Z,102392.41
2022-12-01T18:14:00.126Z,102387.70
2022-12-01T18:16:32.245Z,102391.41
2022-12-01T18:19:02.167Z,102389.27
2022-12-01T18:21:31.957Z,102388.33
2022-12-01T18:24:03.821Z,102391.38
2022-12-01T18:26:33.944Z,102392.70
2022-12-01T18:29:16.061Z,102391.44
2022-12-01T18:31:47.228Z,102388.77
2022-12-01T18:34:17.044Z,102385.31
2022-12-01T18:36:47.082Z,102381.95
2022-12-01T18:39:17.255Z,102382.29
2022-12-01T18:41:47.202Z,102384.08
2022-12-01T18:44:17.109Z,102382.77
2022-12-01T18:46:46.986Z,102383.39
2022-12-01T18:49:17.081Z,102381.39
2022-12-01T18:51:46.799Z,102381.25
2022-12-01T18:54:16.839Z,102380.93
2022-12-01T18:56:46.678Z,102384.20
2022-12-01T18:59:18.337Z,102384.38
2022-12-01T19:01:48.524Z,102383.88
2022-12-01T19:04:19.265Z,102383.98
2022-12-01T19:06:49.082Z,102381.93
2022-12-01T19:09:19.076Z,102377.83
2022-12-01T19:11:48.879Z,102377.80
2022-12-01T19:14:19.684Z,102378.09
2022-12-01T19:16:47.932Z,102375.50
2022-12-01T19:19:15.205Z,102376.92
2022-12-01T19:21:45.446Z,102375.34
2022-12-01T19:24:15.472Z,102372.61
2022-12-01T19:26:45.382Z,102374.23
2022-12-01T19:29:15.266Z,102373.70
2022-12-01T19:31:45.337Z,102369.16
2022-12-01T19:34:15.142Z,102371.14
2022-12-01T19:36:44.890Z,102370.20
2022-12-01T19:39:13.847Z,102375.42
2022-12-01T19:41:41.862Z,102375.23
2022-12-01T19:44:11.932Z,102377.20
2022-12-01T19:46:42.229Z,102377.05
2022-12-01T19:49:10.949Z,102378.30
2022-12-01T19:51:40.452Z,102379.91
2022-12-01T19:54:18.586Z,102379.27
2022-12-01T19:56:49.089Z,102382.13
2022-12-01T19:59:18.802Z,102386.02
2022-12-01T20:01:48.772Z,102389.10
2022-12-01T20:04:18.590Z,102389.49
2022-12-01T20:06:48.648Z,102388.20
2022-12-01T20:09:18.447Z,102394.31
2022-12-01T20:11:48.369Z,102392.21
2022-12-01T20:14:18.130Z,102392.82
2022-12-01T20:16:48.321Z,102391.66
2022-12-01T20:19:18.212Z,102392.84
2022-12-01T20:21:47.979Z,102390.86
2022-12-01T20:24:22.246Z,102388.64
2022-12-01T20:26:56.681Z,102389.52
2022-12-01T20:29:29.561Z,102388.56
2022-12-01T20:32:01.025Z,102387.98
2022-12-01T20:34:35.315Z,102389.64
2022-12-01T20:37:05.167Z,102391.30
2022-12-01T20:39:37.730Z,102392.69
2022-12-01T20:42:11.368Z,102390.55
2022-12-01T20:44:41.322Z,102388.92
2022-12-01T20:47:11.116Z,102385.73
2022-12-01T20:49:40.902Z,102382.98
2022-12-01T20:52:09.336Z,102383.83
2022-12-01T20:54:39.076Z,102383.33
2022-12-01T20:57:06.087Z,102381.34
2022-12-01T20:59:35.783Z,102385.66
2022-12-01T21:02:03.473Z,102385.14
2022-12-01T21:04:31.560Z,102387.29
2022-12-01T21:07:00.268Z,102387.33
2022-12-01T21:09:28.381Z,102385.36
2022-12-01T21:12:18.629Z,102382.27
2022-12-01T21:15:01.818Z,102381.68
2022-12-01T21:17:41.963Z,102384.15
2022-12-01T21:20:26.328Z,102383.64
2022-12-01T21:23:08.728Z,102380.85
2022-12-01T21:25:40.224Z,102382.30
2022-12-01T21:28:19.183Z,102383.00
2022-12-01T21:30:53.386Z,102381.74
2022-12-01T21:33:35.605Z,102379.74
2022-12-01T21:36:18.954Z,102375.11
2022-12-01T21:38:56.700Z,102377.48
2022-12-01T21:41:31.034Z,102375.66
2022-12-01T21:44:12.553Z,102374.90
2022-12-01T21:46:43.756Z,102373.83
2022-12-01T21:49:22.258Z,102369.33
2022-12-01T21:51:53.730Z,102367.11
2022-12-01T21:54:23.472Z,102363.77
2022-12-01T21:56:58.651Z,102363.06
2022-12-01T21:59:28.415Z,102355.98
2022-12-01T22:01:58.300Z,102355.37
2022-12-01T22:04:32.728Z,102351.60
2022-12-01T22:07:03.362Z,102350.17
2022-12-01T22:09:35.940Z,102352.65
2022-12-01T22:12:28.828Z,102346.98
2022-12-01T22:15:01.491Z,102345.89
2022-12-01T22:17:30.084Z,102347.06
2022-12-01T22:20:02.440Z,102341.53
2022-12-01T22:22:32.704Z,102342.02
2022-12-01T22:25:28.385Z,102344.23
2022-12-01T22:27:59.945Z,102340.83
2022-12-01T22:30:29.628Z,102346.18
2022-12-01T22:33:05.325Z,102347.09
2022-12-01T22:35:52.746Z,102348.94
2022-12-01T22:38:39.640Z,102342.85
2022-12-01T22:41:14.402Z,102340.11
2022-12-01T22:43:46.237Z,102343.14
2022-12-01T22:46:35.636Z,102344.95
2022-12-01T22:49:22.595Z,102343.99
2022-12-01T22:52:03.005Z,102339.26
2022-12-01T22:54:39.650Z,102338.47
2022-12-01T22:57:40.802Z,102336.96
2022-12-01T23:00:21.967Z,102333.29
2022-12-01T23:02:52.235Z,102333.78
2022-12-01T23:05:29.290Z,102332.80
2022-12-01T23:07:59.092Z,102332.88
2022-12-01T23:10:33.774Z,102329.48
2022-12-01T23:13:24.169Z,102325.48
2022-12-01T23:15:54.105Z,102322.82
2022-12-01T23:18:31.912Z,102324.55
2022-12-01T23:21:02.498Z,102325.68
2022-12-01T23:23:36.487Z,102323.15
2022-12-01T23:26:08.597Z,102321.13
2022-12-01T23:28:40.641Z,102318.92
2022-12-01T23:31:10.850Z,102320.61
2022-12-01T23:33:40.737Z,102316.43
2022-12-01T23:36:24.573Z,102303.77
2022-12-01T23:39:02.272Z,102302.07
2022-12-01T23:41:42.414Z,102300.83
2022-12-01T23:44:41.517Z,102301.88
2022-12-01T23:47:26.702Z,102300.23
2022-12-01T23:50:06.670Z,102300.73
2022-12-01T23:52:36.721Z,102299.51
2022-12-01T23:55:22.817Z,102303.84
2022-12-01T23:57:53.565Z,102303.54
